createdAt,value
2019-03-11T00:04:15.007Z,2.70
2019-03-11T00:06:55.368Z,3.40
2019-03-11T00:09:35.205Z,5.20
2019-03-11T00:12:15.190Z,3.40
2019-03-11T00:14:54.882Z,3.30
2019-03-11T00:17:34.977Z,3.90
2019-03-11T00:20:14.928Z,2.90
2019-03-11T00:22:41.780Z,3.30
2019-03-11T00:25:28.199Z,3.20
2019-03-11T00:27:54.989Z,2.50
2019-03-11T00:30:41.593Z,3.30
2019-03-11T00:33:28.015Z,4.10
2019-03-11T00:35:54.882Z,3.00
2019-03-11T00:38:22.229Z,3.30
2019-03-11T00:41:08.999Z,3.30
2019-03-11T00:43:55.389Z,4.40
2019-03-11T00:46:41.793Z,3.00
2019-03-11T00:49:28.192Z,4.10
2019-03-11T00:51:55.105Z,3.10
2019-03-11T00:54:41.589Z,3.30
2019-03-11T00:57:28.116Z,3.30
2019-03-11T00:59:55.244Z,3.10
2019-03-11T01:02:41.837Z,3.80
2019-03-11T01:05:28.333Z,4.60
2019-03-11T01:07:55.189Z,2.80
2019-03-11T01:10:41.581Z,3.30
2019-03-11T01:13:28.227Z,3.40
2019-03-11T01:15:55.253Z,3.50
2019-03-11T01:18:42.016Z,3.40
2019-03-11T01:21:28.405Z,3.10
2019-03-11T01:23:55.263Z,3.10
2019-03-11T01:26:41.752Z,3.30
2019-03-11T01:29:08.509Z,4.90
2019-03-11T01:31:54.915Z,3.20
2019-03-11T01:34:41.574Z,3.10
2019-03-11T01:37:27.996Z,3.50
2019-03-11T01:40:14.487Z,3.10
2019-03-11T01:43:01.000Z,3.20
2019-03-11T01:45:47.643Z,3.20
2019-03-11T01:48:34.049Z,4.00
2019-03-11T01:51:20.464Z,3.10
2019-03-11T01:54:06.870Z,2.80
2019-03-11T01:56:53.277Z,3.70
2019-03-11T01:59:20.058Z,3.20
2019-03-11T02:01:59.509Z,3.20
2019-03-11T02:04:39.550Z,1.50
2019-03-11T02:07:20.014Z,3.80
2019-03-11T02:09:59.673Z,2.50
2019-03-11T02:12:39.618Z,2.70
2019-03-11T02:15:19.675Z,4.40
2019-03-11T02:17:59.695Z,3.70
2019-03-11T02:20:39.529Z,3.20
2019-03-11T02:23:19.610Z,4.80
2019-03-11T02:25:59.932Z,3.00
2019-03-11T02:28:39.810Z,2.10
2019-03-11T02:31:19.744Z,3.30
2019-03-11T02:33:59.034Z,2.40
2019-03-11T02:36:39.106Z,3.30
2019-03-11T02:39:19.155Z,3.60
2019-03-11T02:41:58.380Z,3.40
2019-03-11T02:44:38.347Z,2.60
2019-03-11T02:47:18.218Z,3.20
2019-03-11T02:49:58.302Z,4.40
2019-03-11T02:52:38.439Z,3.10
2019-03-11T02:55:18.631Z,3.60
2019-03-11T02:57:58.189Z,3.80
2019-03-11T03:00:38.117Z,3.40
2019-03-11T03:03:37.698Z,3.20
2019-03-11T03:06:17.246Z,4.30
2019-03-11T03:08:57.659Z,3.10
2019-03-11T03:11:37.711Z,2.30
2019-03-11T03:14:17.779Z,3.20
2019-03-11T03:16:57.907Z,3.50
2019-03-11T03:19:37.932Z,3.80
2019-03-11T03:22:17.853Z,4.40
2019-03-11T03:24:57.061Z,2.40
2019-03-11T03:27:37.339Z,3.30
2019-03-11T03:30:17.063Z,3.70
2019-03-11T03:32:56.238Z,1.70
2019-03-11T03:35:36.306Z,3.90
2019-03-11T03:38:29.813Z,3.80
2019-03-11T03:40:57.680Z,5.80
2019-03-11T03:43:37.418Z,3.60
2019-03-11T03:46:19.454Z,3.40
2019-03-11T03:48:58.655Z,4.60
2019-03-11T03:51:38.801Z,3.10
2019-03-11T03:54:18.707Z,3.30
2019-03-11T03:56:59.103Z,3.70
2019-03-11T03:59:38.973Z,2.00
2019-03-11T04:02:19.044Z,3.30
2019-03-11T04:04:59.270Z,3.50
2019-03-11T04:07:26.038Z,4.10
2019-03-11T04:10:12.681Z,3.40
2019-03-11T04:13:05.986Z,3.10
2019-03-11T04:15:52.394Z,2.90
2019-03-11T04:18:58.546Z,2.90
2019-03-11T04:21:45.230Z,3.50
2019-03-11T04:24:31.738Z,3.60
2019-03-11T04:27:18.386Z,4.20
2019-03-11T04:30:05.768Z,4.30
2019-03-11T04:32:52.169Z,3.30
2019-03-11T04:35:38.619Z,4.90
2019-03-11T04:38:25.026Z,3.50
2019-03-11T04:41:11.549Z,4.20
2019-03-11T04:43:58.013Z,4.00
2019-03-11T04:46:44.449Z,2.30
2019-03-11T04:49:31.109Z,3.70
2019-03-11T04:52:17.757Z,2.70
2019-03-11T04:55:04.355Z,3.20
2019-03-11T04:57:51.429Z,5.30
2019-03-11T05:00:20.452Z,3.90
2019-03-11T05:03:07.229Z,3.90
2019-03-11T05:08:40.433Z,4.00
2019-03-11T05:11:26.806Z,4.10
2019-03-11T05:14:13.463Z,5.00
2019-03-11T05:17:00.127Z,2.60
2019-03-11T05:19:27.085Z,4.30
2019-03-11T05:22:13.589Z,3.90
2019-03-11T05:25:00.447Z,4.20
2019-03-11T05:27:46.842Z,5.20
2019-03-11T05:30:33.394Z,3.30
2019-03-11T05:33:19.835Z,4.80
2019-03-11T05:36:06.254Z,4.30
2019-03-11T05:38:53.237Z,4.00
2019-03-11T05:41:39.653Z,3.80
2019-03-11T05:44:26.309Z,5.80
2019-03-11T05:47:12.710Z,4.00
2019-03-11T05:49:59.310Z,2.80
2019-03-11T05:52:45.815Z,3.90
2019-03-11T05:55:32.229Z,3.50
2019-03-11T05:58:18.644Z,2.40
2019-03-11T06:00:57.945Z,5.20
2019-03-11T06:03:37.231Z,3.60
2019-03-11T06:06:17.136Z,5.10
2019-03-11T06:08:57.176Z,3.70
2019-03-11T06:11:37.175Z,3.70
2019-03-11T06:14:04.241Z,4.10
2019-03-11T06:19:37.195Z,3.60
2019-03-11T06:22:26.748Z,3.40
2019-03-11T06:25:13.527Z,3.60
2019-03-11T06:27:59.936Z,3.50
2019-03-11T06:36:19.768Z,3.40
2019-03-11T06:39:06.614Z,3.30
2019-03-11T06:41:53.246Z,3.30
2019-03-11T06:44:39.662Z,3.00
2019-03-11T06:47:26.439Z,2.80
2019-03-11T06:50:12.941Z,3.10
2019-03-11T06:52:59.347Z,3.10
2019-03-11T06:55:45.872Z,2.70
2019-03-11T06:58:32.274Z,2.40
2019-03-11T07:01:12.287Z,2.50
2019-03-11T07:03:52.279Z,1.80
2019-03-11T07:06:32.183Z,1.80
2019-03-11T07:09:11.468Z,2.10
2019-03-11T07:11:51.454Z,2.70
2019-03-11T07:14:31.514Z,2.40
2019-03-11T07:17:11.646Z,2.40
2019-03-11T07:20:11.636Z,2.40
2019-03-11T07:22:39.834Z,2.50
2019-03-11T07:25:19.864Z,2.50
2019-03-11T07:28:00.093Z,3.70
2019-03-11T07:30:40.174Z,2.60
2019-03-11T07:33:20.321Z,3.60
2019-03-11T07:36:00.337Z,2.60
2019-03-11T07:38:42.251Z,1.90
2019-03-11T07:41:22.354Z,2.90
2019-03-11T07:44:02.524Z,3.00
2019-03-11T07:46:42.527Z,3.20
2019-03-11T07:49:22.440Z,3.20
2019-03-11T07:52:02.821Z,3.20
2019-03-11T07:54:42.740Z,3.50
2019-03-11T07:57:22.759Z,3.60
2019-03-11T08:00:02.900Z,3.70
2019-03-11T08:02:42.086Z,3.80
2019-03-11T08:05:22.144Z,2.90
2019-03-11T08:08:02.352Z,3.60
2019-03-11T08:10:42.299Z,3.70
2019-03-11T08:13:22.299Z,3.30
2019-03-11T08:16:02.377Z,2.30
2019-03-11T08:18:42.146Z,1.80
2019-03-11T08:21:21.412Z,2.60
2019-03-11T08:24:00.835Z,3.10
2019-03-11T08:26:40.873Z,1.80
2019-03-11T08:29:20.035Z,1.60
2019-03-11T08:31:47.170Z,1.80
2019-03-11T08:34:33.571Z,1.80
2019-03-11T08:37:20.089Z,1.90
2019-03-11T08:40:06.968Z,3.10
2019-03-11T08:42:53.359Z,2.10
2019-03-11T08:45:39.803Z,3.20
2019-03-11T08:48:26.538Z,2.20
2019-03-11T08:51:12.956Z,2.20
2019-03-11T08:53:59.347Z,2.20
2019-03-11T08:56:26.197Z,2.60
2019-03-11T08:59:12.625Z,2.80
2019-03-11T09:01:59.020Z,3.20
2019-03-11T09:04:45.535Z,2.60
2019-03-11T09:07:31.926Z,2.30
2019-03-11T09:10:18.431Z,2.50
2019-03-11T09:13:04.934Z,2.40
2019-03-11T09:15:52.893Z,3.00
2019-03-11T09:18:39.750Z,1.30
2019-03-11T09:21:26.531Z,2.50
2019-03-11T09:24:19.123Z,2.30
2019-03-11T09:27:01.632Z,4.10
2019-03-11T09:29:48.071Z,5.00
2019-03-11T09:38:07.667Z,7.50
2019-03-11T09:52:22.269Z,12.90
2019-03-11T09:55:09.343Z,15.00
2019-03-11T09:57:55.869Z,12.90
2019-03-11T10:00:37.862Z,12.70
2019-03-11T10:03:17.577Z,12.70
2019-03-11T10:05:57.616Z,12.90
2019-03-11T10:08:38.025Z,12.20
2019-03-11T10:11:18.236Z,11.60
2019-03-11T10:13:57.980Z,10.20
2019-03-11T10:16:38.327Z,10.80
2019-03-11T10:19:18.540Z,11.30
2019-03-11T10:21:58.838Z,12.50
2019-03-11T10:24:38.752Z,9.80
2019-03-11T10:27:18.986Z,9.30
2019-03-11T10:29:58.903Z,8.80
2019-03-11T10:32:40.881Z,8.40
2019-03-11T10:35:32.700Z,7.20
2019-03-11T10:38:03.211Z,6.10
2019-03-11T10:40:42.960Z,6.30
2019-03-11T10:43:22.843Z,5.00
2019-03-11T10:46:02.670Z,4.70
2019-03-11T10:48:42.723Z,7.40
2019-03-11T10:51:22.851Z,11.90
2019-03-11T10:54:03.082Z,11.90
2019-03-11T10:56:43.127Z,11.90
2019-03-11T10:59:10.270Z,11.20
2019-03-11T11:01:56.917Z,11.50
2019-03-11T11:04:43.940Z,11.90
2019-03-11T11:07:30.630Z,13.20
2019-03-11T11:10:17.344Z,13.90
2019-03-11T11:13:04.028Z,12.20
2019-03-11T11:15:50.495Z,12.60
2019-03-11T11:24:10.694Z,12.50
2019-03-11T11:26:57.226Z,11.10
2019-03-11T11:32:30.993Z,8.80
2019-03-11T11:35:17.411Z,10.30
2019-03-11T11:38:04.029Z,12.80
2019-03-11T11:43:37.154Z,8.80
2019-03-11T11:46:23.936Z,8.30
2019-03-11T12:03:33.845Z,10.20
2019-03-11T12:06:13.803Z,9.10
2019-03-11T12:08:53.764Z,9.80
2019-03-11T12:11:33.634Z,10.70
2019-03-11T12:14:13.787Z,10.10
2019-03-11T12:16:53.638Z,8.80
2019-03-11T12:19:32.885Z,7.40
2019-03-11T12:22:12.764Z,9.40
2019-03-11T12:24:52.987Z,12.00
2019-03-11T12:27:32.269Z,12.90
2019-03-11T12:30:12.198Z,13.40
2019-03-11T12:36:05.179Z,7.20
2019-03-11T12:38:45.051Z,5.80
2019-03-11T12:41:25.070Z,3.60
2019-03-11T12:44:05.081Z,3.10
2019-03-11T12:46:45.034Z,3.20
2019-03-11T12:49:25.103Z,3.30
2019-03-11T12:52:05.287Z,3.30
2019-03-11T12:57:43.539Z,8.00
2019-03-11T13:03:21.836Z,10.70
2019-03-11T13:09:00.267Z,12.80
2019-03-11T13:11:40.436Z,12.90
2019-03-11T13:14:20.405Z,12.00
2019-03-11T13:17:00.410Z,12.20
2019-03-11T13:19:40.530Z,14.00
2019-03-11T13:25:18.845Z,12.50
2019-03-11T13:27:58.936Z,10.50
2019-03-11T13:36:15.838Z,8.50
2019-03-11T13:38:55.852Z,6.70
2019-03-11T13:41:36.023Z,5.80
2019-03-11T13:44:15.673Z,4.70
2019-03-11T13:46:55.707Z,4.50
2019-03-11T13:49:35.687Z,4.20
2019-03-11T13:52:15.700Z,3.60
2019-03-11T13:54:55.910Z,3.90
2019-03-11T13:57:35.842Z,7.50
2019-03-11T14:00:16.328Z,10.40
2019-03-11T14:02:55.949Z,11.50
2019-03-11T14:05:36.366Z,11.80
2019-03-11T14:14:13.573Z,11.50
2019-03-11T14:16:53.333Z,12.00
2019-03-11T14:19:33.213Z,8.20
2019-03-11T14:22:13.278Z,8.30
2019-03-11T14:24:52.546Z,9.20
2019-03-11T14:27:31.827Z,8.30
2019-03-11T14:29:58.874Z,7.80
2019-03-11T14:35:31.963Z,10.10
2019-03-11T14:38:18.748Z,10.30
2019-03-11T14:41:05.488Z,8.90
2019-03-11T14:43:52.097Z,8.60
2019-03-11T14:49:25.284Z,6.00
2019-03-11T14:52:12.079Z,5.30
2019-03-11T14:54:58.629Z,4.80
2019-03-11T14:57:45.190Z,4.00
2019-03-11T15:06:36.139Z,3.30
2019-03-11T15:09:16.257Z,3.80
2019-03-11T15:11:56.340Z,4.40
2019-03-11T15:14:36.421Z,3.60
2019-03-11T15:17:16.482Z,3.90
2019-03-11T15:19:43.374Z,4.20
2019-03-11T15:22:29.954Z,4.40
2019-03-11T15:25:16.784Z,4.30
2019-03-11T15:28:03.398Z,3.70
2019-03-11T15:30:50.005Z,4.80
2019-03-11T15:33:36.652Z,5.10
2019-03-11T15:36:32.895Z,6.00
2019-03-11T15:39:11.632Z,6.30
2019-03-11T15:41:58.225Z,6.00
2019-03-11T15:44:45.002Z,6.40
2019-03-11T15:47:31.539Z,6.50
2019-03-11T15:50:19.095Z,5.60
2019-03-11T15:53:05.515Z,5.40
2019-03-11T15:55:52.045Z,5.10
2019-03-11T15:58:38.498Z,5.30
2019-03-11T16:01:20.426Z,5.90
2019-03-11T16:03:59.025Z,6.90
2019-03-11T16:06:41.768Z,6.60
2019-03-11T16:09:27.466Z,7.00
2019-03-11T16:12:07.345Z,6.20
2019-03-11T16:14:49.715Z,5.40
2019-03-11T16:17:29.431Z,5.40
2019-03-11T16:20:09.277Z,6.10
2019-03-11T16:22:49.380Z,5.30
2019-03-11T16:25:29.313Z,5.20
2019-03-11T16:27:56.086Z,5.50
2019-03-11T16:30:43.179Z,5.00
2019-03-11T16:33:29.673Z,6.70
2019-03-11T16:36:16.174Z,5.20
2019-03-11T16:39:03.705Z,4.80
2019-03-11T16:41:50.463Z,4.30
2019-03-11T16:44:36.879Z,5.30
2019-03-11T16:47:23.500Z,4.30
2019-03-11T16:50:10.974Z,4.20
2019-03-11T16:52:57.513Z,4.20
2019-03-11T16:58:38.483Z,5.10
2019-03-11T17:01:18.157Z,4.30
2019-03-11T17:03:58.382Z,3.30
2019-03-11T17:06:38.703Z,3.40
2019-03-11T17:09:18.627Z,3.80
2019-03-11T17:11:58.577Z,3.80
2019-03-11T17:14:38.564Z,4.20
2019-03-11T17:17:18.783Z,3.70
2019-03-11T17:19:57.869Z,3.60
2019-03-11T17:22:37.930Z,3.60
2019-03-11T17:25:06.561Z,3.40
2019-03-11T17:27:53.081Z,3.80
2019-03-11T17:30:39.486Z,3.70
2019-03-11T17:33:25.891Z,3.70
2019-03-11T17:36:12.453Z,3.60
2019-03-11T17:38:58.985Z,3.50
2019-03-11T17:41:45.445Z,3.20
2019-03-11T17:44:31.946Z,3.40
2019-03-11T17:47:18.464Z,3.60
2019-03-11T17:50:05.890Z,3.50
2019-03-11T17:52:33.150Z,3.50
2019-03-11T17:55:19.881Z,3.50
2019-03-11T17:58:06.406Z,3.70
2019-03-11T18:00:55.035Z,3.60
2019-03-11T18:03:28.531Z,3.40
2019-03-11T18:09:19.964Z,3.70
2019-03-11T18:11:59.900Z,3.50
2019-03-11T18:14:39.918Z,3.30
2019-03-11T18:17:19.942Z,3.10
2019-03-11T18:22:58.142Z,2.70
2019-03-11T18:25:37.533Z,2.70
2019-03-11T18:28:17.613Z,2.40
2019-03-11T18:30:57.645Z,0.20
2019-03-11T18:33:36.936Z,2.10
2019-03-11T18:36:17.168Z,2.40
2019-03-11T19:23:18.309Z,3.10
2019-03-11T19:25:58.483Z,3.20
2019-03-11T19:28:37.845Z,3.00
2019-03-11T19:31:04.685Z,4.00
2019-03-11T19:33:51.105Z,3.20
2019-03-11T19:36:37.620Z,2.50
2019-03-11T19:39:24.329Z,3.30
2019-03-11T19:42:11.004Z,5.10
2019-03-11T19:44:57.574Z,3.70
2019-03-11T19:47:44.098Z,3.50
2019-03-11T19:50:30.698Z,3.50
2019-03-11T19:52:59.478Z,3.40
2019-03-11T19:55:47.678Z,3.50
2019-03-11T20:01:14.002Z,3.60
2019-03-11T20:03:54.161Z,3.40
2019-03-11T20:06:34.040Z,3.60
2019-03-11T20:09:14.474Z,3.30
2019-03-11T20:11:54.177Z,5.20
2019-03-11T20:14:34.006Z,3.60
2019-03-11T20:17:13.916Z,3.60
2019-03-11T20:19:54.143Z,2.70
2019-03-11T20:22:34.429Z,3.70
2019-03-11T20:25:14.405Z,4.00
2019-03-11T20:27:54.780Z,5.30
2019-03-11T20:30:34.011Z,2.70
2019-03-11T20:33:14.316Z,3.50
2019-03-11T20:35:54.313Z,3.80
2019-03-11T20:38:33.657Z,3.20
2019-03-11T20:41:13.458Z,3.60
2019-03-11T20:43:52.839Z,4.80
2019-03-11T20:46:32.292Z,3.50
2019-03-11T20:49:12.906Z,3.30
2019-03-11T20:51:39.670Z,3.70
2019-03-11T20:57:13.021Z,3.80
2019-03-11T21:03:05.483Z,4.00
2019-03-11T21:05:45.613Z,4.00
2019-03-11T21:08:25.041Z,4.00
2019-03-11T21:10:51.939Z,4.40
2019-03-11T21:13:38.343Z,4.10
2019-03-11T21:16:24.893Z,4.20
2019-03-11T21:19:11.341Z,4.30
2019-03-11T21:21:58.229Z,3.90
2019-03-11T21:24:45.093Z,4.10
2019-03-11T21:27:31.593Z,4.30
2019-03-11T21:30:18.953Z,4.10
2019-03-11T21:33:07.460Z,4.00
2019-03-11T21:35:54.014Z,2.50
2019-03-11T21:38:40.528Z,3.90
2019-03-11T21:41:27.402Z,3.80
2019-03-11T21:44:14.089Z,3.70
2019-03-11T21:47:00.495Z,3.90
2019-03-11T21:49:47.505Z,4.20
2019-03-11T21:52:34.196Z,3.90
2019-03-11T21:55:20.781Z,3.50
2019-03-11T21:58:13.288Z,3.80
2019-03-11T22:00:48.821Z,3.70
2019-03-11T22:03:28.454Z,3.70
2019-03-11T22:05:55.602Z,3.60
2019-03-11T22:08:42.077Z,3.50
2019-03-11T22:14:15.102Z,3.40
2019-03-11T22:17:01.533Z,3.40
2019-03-11T22:19:48.046Z,3.40
2019-03-11T22:22:34.798Z,3.70
2019-03-11T22:25:21.212Z,2.70
2019-03-11T22:28:07.853Z,3.50
2019-03-11T22:30:54.270Z,3.40
2019-03-11T22:33:40.662Z,4.60
2019-03-11T22:36:27.069Z,2.80
2019-03-11T22:39:13.486Z,3.30
2019-03-11T22:42:00.159Z,3.20
2019-03-11T22:44:46.562Z,3.50
2019-03-11T22:47:33.226Z,3.90
2019-03-11T22:50:19.982Z,3.80
2019-03-11T22:53:06.713Z,3.80
2019-03-11T22:55:53.117Z,5.40
2019-03-11T22:58:39.529Z,3.60
2019-03-11T23:01:19.390Z,3.40
2019-03-11T23:03:58.845Z,3.00
2019-03-11T23:06:38.954Z,5.60
2019-03-11T23:09:18.061Z,3.90
2019-03-11T23:11:58.209Z,4.10
2019-03-11T23:14:38.265Z,4.80
2019-03-11T23:17:18.358Z,4.60
2019-03-11T23:19:58.302Z,3.80
2019-03-11T23:25:36.534Z,3.50
2019-03-11T23:28:16.601Z,3.60
2019-03-11T23:30:56.697Z,3.00
2019-03-11T23:33:36.635Z,3.90
2019-03-11T23:36:16.677Z,3.80
2019-03-11T23:38:55.962Z,4.90
2019-03-11T23:41:36.010Z,4.90
2019-03-11T23:44:15.981Z,3.30
2019-03-11T23:46:56.066Z,3.50
2019-03-11T23:49:36.133Z,3.60
2019-03-11T23:52:16.558Z,3.60
2019-03-11T23:54:56.478Z,3.40
2019-03-11T23:57:36.515Z,3.90
